Terminal Aerodrome Forecast
Issued by NWS Charleston, WV

Current Version | Previous Version | Graphics & Text | Print | Product List | Glossary On
Versions: 1 2 3 4 5 6 7 8 9 10 11 12 13 14 15 16 17 18 19 20 21 22 23 24
000
FTUS41 KRLX 171725
TAFCRW
TAF
KCRW 171725Z 1718/1818 32004KT P6SM BKN020
     FM172100 30004KT P6SM SCT025
     FM180100 28003KT P6SM BKN070
     FM180800 00000KT P6SM SCT150=

USA.gov is the U.S. government's official web portal to all federal, state and local government web resources and services.